sensor_id;sensor_type;location;lat;lon;timestamp;pressure;altitude;pressure_sealevel;temperature;humidity
37078;BME280;22989;55.998;37.212;2024-02-28T00:00:28;42203.59;;;-145.39;48.64
37078;BME280;22989;55.998;37.212;2024-02-28T00:02:53;42219.22;;;-145.39;49.07
37078;BME280;22989;55.998;37.212;2024-02-28T00:05:19;42221.19;;;-145.39;48.92
37078;BME280;22989;55.998;37.212;2024-02-28T00:07:44;42242.66;;;-145.39;48.82
37078;BME280;22989;55.998;37.212;2024-02-28T00:10:11;42221.19;;;-145.39;48.87
37078;BME280;22989;55.998;37.212;2024-02-28T00:12:36;42240.69;;;-145.39;49.01
37078;BME280;22989;55.998;37.212;2024-02-28T00:15:04;42227.03;;;-145.39;48.90
37078;BME280;22989;55.998;37.212;2024-02-28T00:17:30;42221.19;;;-145.39;48.89
37078;BME280;22989;55.998;37.212;2024-02-28T00:19:56;42238.75;;;-145.39;49.00
37078;BME280;22989;55.998;37.212;2024-02-28T00:22:22;42217.28;;;-145.39;48.89
37078;BME280;22989;55.998;37.212;2024-02-28T00:24:47;42186.03;;;-145.39;49.16
37078;BME280;22989;55.998;37.212;2024-02-28T00:27:13;42209.47;;;-145.39;49.21
37078;BME280;22989;55.998;37.212;2024-02-28T00:29:39;42248.50;;;-145.39;49.02
37078;BME280;22989;55.998;37.212;2024-02-28T00:32:05;42219.22;;;-145.39;49.14
37078;BME280;22989;55.998;37.212;2024-02-28T00:34:30;42201.66;;;-145.39;48.98
37078;BME280;22989;55.998;37.212;2024-02-28T00:36:56;42213.38;;;-145.39;49.05
37078;BME280;22989;55.998;37.212;2024-02-28T00:39:21;42227.03;;;-145.39;49.06
37078;BME280;22989;55.998;37.212;2024-02-28T00:41:47;42225.06;;;-145.39;49.09
37078;BME280;22989;55.998;37.212;2024-02-28T00:44:13;42246.56;;;-145.39;49.18
37078;BME280;22989;55.998;37.212;2024-02-28T00:46:39;42230.94;;;-145.39;49.06
37078;BME280;22989;55.998;37.212;2024-02-28T00:49:05;42227.03;;;-145.39;49.24
37078;BME280;22989;55.998;37.212;2024-02-28T00:51:30;42232.88;;;-145.39;49.26
37078;BME280;22989;55.998;37.212;2024-02-28T00:53:56;42209.47;;;-145.39;49.29
37078;BME280;22989;55.998;37.212;2024-02-28T00:56:21;42215.31;;;-145.39;49.26
37078;BME280;22989;55.998;37.212;2024-02-28T00:58:47;42258.28;;;-145.39;49.29
37078;BME280;22989;55.998;37.212;2024-02-28T01:01:12;42256.31;;;-145.39;49.14
37078;BME280;22989;55.998;37.212;2024-02-28T01:03:38;42262.19;;;-145.39;49.29
37078;BME280;22989;55.998;37.212;2024-02-28T01:06:04;42232.88;;;-145.39;49.16
37078;BME280;22989;55.998;37.212;2024-02-28T01:08:29;42240.69;;;-145.39;49.19
37078;BME280;22989;55.998;37.212;2024-02-28T01:10:55;42240.69;;;-145.39;49.30
37078;BME280;22989;55.998;37.212;2024-02-28T01:13:21;42223.13;;;-145.39;49.37
37078;BME280;22989;55.998;37.212;2024-02-28T01:15:46;42289.50;;;-145.39;49.36
37078;BME280;22989;55.998;37.212;2024-02-28T01:18:12;42244.59;;;-145.39;49.40
37078;BME280;22989;55.998;37.212;2024-02-28T01:20:38;42236.78;;;-145.39;49.14
37078;BME280;22989;55.998;37.212;2024-02-28T01:23:03;42244.59;;;-145.39;49.33
37078;BME280;22989;55.998;37.212;2024-02-28T01:25:29;42236.78;;;-145.39;49.27
37078;BME280;22989;55.998;37.212;2024-02-28T01:27:56;42252.41;;;-145.39;49.28
37078;BME280;22989;55.998;37.212;2024-02-28T01:30:23;42234.84;;;-145.39;49.54
37078;BME280;22989;55.998;37.212;2024-02-28T01:32:49;42258.28;;;-145.39;49.39
37078;BME280;22989;55.998;37.212;2024-02-28T01:35:14;42236.78;;;-145.39;49.42
37078;BME280;22989;55.998;37.212;2024-02-28T01:37:40;42270.00;;;-145.39;49.31
37078;BME280;22989;55.998;37.212;2024-02-28T01:40:06;42250.47;;;-145.39;49.66
37078;BME280;22989;55.998;37.212;2024-02-28T01:42:32;42225.06;;;-145.39;49.43
37078;BME280;22989;55.998;37.212;2024-02-28T01:44:58;42205.56;;;-145.39;49.68
37078;BME280;22989;55.998;37.212;2024-02-28T01:47:24;42252.41;;;-145.39;49.50
37078;BME280;22989;55.998;37.212;2024-02-28T01:49:49;42266.09;;;-145.39;49.64
37078;BME280;22989;55.998;37.212;2024-02-28T01:52:16;42270.00;;;-145.39;49.80
37078;BME280;22989;55.998;37.212;2024-02-28T01:54:43;42242.66;;;-145.39;49.60
37078;BME280;22989;55.998;37.212;2024-02-28T01:57:08;42270.00;;;-145.39;49.72
37078;BME280;22989;55.998;37.212;2024-02-28T01:59:34;42273.88;;;-145.39;49.72
37078;BME280;22989;55.998;37.212;2024-02-28T02:02:00;42232.88;;;-145.39;49.77
37078;BME280;22989;55.998;37.212;2024-02-28T02:04:25;42252.41;;;-145.39;49.85
37078;BME280;22989;55.998;37.212;2024-02-28T02:06:51;42281.69;;;-145.39;49.95
37078;BME280;22989;55.998;37.212;2024-02-28T02:09:19;42234.84;;;-145.39;49.95
37078;BME280;22989;55.998;37.212;2024-02-28T02:11:45;42264.13;;;-145.39;49.92
37078;BME280;22989;55.998;37.212;2024-02-28T02:14:11;42250.47;;;-145.39;49.77
37078;BME280;22989;55.998;37.212;2024-02-28T02:16:36;42262.19;;;-145.39;49.75
37078;BME280;22989;55.998;37.212;2024-02-28T02:19:03;42309.03;;;-145.39;50.07
37078;BME280;22989;55.998;37.212;2024-02-28T02:21:35;42232.88;;;-145.39;50.00
37078;BME280;22989;55.998;37.212;2024-02-28T02:24:03;42252.41;;;-145.39;50.09
37078;BME280;22989;55.998;37.212;2024-02-28T02:26:28;42270.00;;;-145.39;50.04
37078;BME280;22989;55.998;37.212;2024-02-28T02:28:54;42281.69;;;-145.39;49.65
37078;BME280;22989;55.998;37.212;2024-02-28T02:31:19;42277.78;;;-145.39;49.79
37078;BME280;22989;55.998;37.212;2024-02-28T02:33:45;42303.19;;;-145.39;50.00
37078;BME280;22989;55.998;37.212;2024-02-28T02:36:10;42238.75;;;-145.39;50.20
37078;BME280;22989;55.998;37.212;2024-02-28T02:38:36;42277.78;;;-145.39;49.90
37078;BME280;22989;55.998;37.212;2024-02-28T02:41:02;42305.13;;;-145.39;50.02
37078;BME280;22989;55.998;37.212;2024-02-28T02:43:27;42270.00;;;-145.39;49.94
37078;BME280;22989;55.998;37.212;2024-02-28T02:45:53;42277.78;;;-145.39;50.21
37078;BME280;22989;55.998;37.212;2024-02-28T02:48:18;42271.94;;;-145.39;50.03
37078;BME280;22989;55.998;37.212;2024-02-28T02:50:44;42279.75;;;-145.39;50.22
37078;BME280;22989;55.998;37.212;2024-02-28T02:53:10;42303.19;;;-145.39;50.19
37078;BME280;22989;55.998;37.212;2024-02-28T02:55:36;42273.88;;;-145.39;50.19
37078;BME280;22989;55.998;37.212;2024-02-28T02:58:01;42279.75;;;-145.39;50.17
37078;BME280;22989;55.998;37.212;2024-02-28T03:00:28;42275.84;;;-145.39;50.19
37078;BME280;22989;55.998;37.212;2024-02-28T03:02:53;42293.41;;;-145.39;50.36
37078;BME280;22989;55.998;37.212;2024-02-28T03:05:19;42275.84;;;-145.39;50.35
37078;BME280;22989;55.998;37.212;2024-02-28T03:07:45;42268.03;;;-145.39;50.26
37078;BME280;22989;55.998;37.212;2024-02-28T03:10:10;42260.22;;;-145.39;50.39
37078;BME280;22989;55.998;37.212;2024-02-28T03:12:36;42270.00;;;-145.39;50.44
37078;BME280;22989;55.998;37.212;2024-02-28T03:15:02;42287.56;;;-145.39;50.37
37078;BME280;22989;55.998;37.212;2024-02-28T03:17:28;42281.69;;;-145.39;50.67
37078;BME280;22989;55.998;37.212;2024-02-28T03:19:54;42275.84;;;-145.39;50.34
37078;BME280;22989;55.998;37.212;2024-02-28T03:22:20;42275.84;;;-145.39;50.46
37078;BME280;22989;55.998;37.212;2024-02-28T03:24:45;42309.03;;;-145.39;50.34
37078;BME280;22989;55.998;37.212;2024-02-28T03:27:11;42264.13;;;-145.39;50.48
37078;BME280;22989;55.998;37.212;2024-02-28T03:29:36;42301.22;;;-145.39;50.64
37078;BME280;22989;55.998;37.212;2024-02-28T03:32:03;42301.22;;;-145.39;50.68
37078;BME280;22989;55.998;37.212;2024-02-28T03:34:29;42312.94;;;-145.39;50.65
37078;BME280;22989;55.998;37.212;2024-02-28T03:36:55;42307.09;;;-145.39;50.76
37078;BME280;22989;55.998;37.212;2024-02-28T03:39:21;42336.38;;;-145.39;50.66
37078;BME280;22989;55.998;37.212;2024-02-28T03:41:46;42353.94;;;-145.39;50.66
37078;BME280;22989;55.998;37.212;2024-02-28T03:44:12;42328.56;;;-145.39;50.73
37078;BME280;22989;55.998;37.212;2024-02-28T03:46:37;42373.47;;;-145.39;50.63
37078;BME280;22989;55.998;37.212;2024-02-28T03:49:02;42412.53;;;-145.39;50.90
37078;BME280;22989;55.998;37.212;2024-02-28T03:51:28;42478.91;;;-145.39;50.78
37078;BME280;22989;55.998;37.212;2024-02-28T03:53:55;42533.56;;;-145.39;50.79
37078;BME280;22989;55.998;37.212;2024-02-28T03:56:24;42623.41;;;-145.39;50.78
37078;BME280;22989;55.998;37.212;2024-02-28T03:58:50;42877.25;;;-145.39;50.84
37078;BME280;22989;55.998;37.212;2024-02-28T04:01:16;43045.19;;;-145.39;51.02
37078;BME280;22989;55.998;37.212;2024-02-28T04:03:42;43301.03;;;-145.39;50.96
37078;BME280;22989;55.998;37.212;2024-02-28T04:06:07;43396.72;;;-145.39;50.89
37078;BME280;22989;55.998;37.212;2024-02-28T04:08:33;43465.06;;;-145.39;51.14
37078;BME280;22989;55.998;37.212;2024-02-28T04:10:58;43609.59;;;-145.39;50.97
37078;BME280;22989;55.998;37.212;2024-02-28T04:13:24;43707.25;;;-145.39;51.13
37078;BME280;22989;55.998;37.212;2024-02-28T04:15:49;43818.59;;;-145.39;51.21
37078;BME280;22989;55.998;37.212;2024-02-28T04:18:15;43879.16;;;-145.39;51.02
37078;BME280;22989;55.998;37.212;2024-02-28T04:20:40;43920.16;;;-145.39;50.98
37078;BME280;22989;55.998;37.212;2024-02-28T04:23:06;43920.16;;;-145.39;51.29
37078;BME280;22989;55.998;37.212;2024-02-28T04:25:31;43955.31;;;-145.39;51.23
37078;BME280;22989;55.998;37.212;2024-02-28T04:27:57;44041.28;;;-145.39;51.10
37078;BME280;22989;55.998;37.212;2024-02-28T04:30:23;44099.88;;;-145.39;51.29
37078;BME280;22989;55.998;37.212;2024-02-28T04:32:48;44172.16;;;-145.39;51.25
37078;BME280;22989;55.998;37.212;2024-02-28T04:35:15;44205.34;;;-145.39;51.29
37078;BME280;22989;55.998;37.212;2024-02-28T04:37:44;44258.09;;;-145.39;51.21
37078;BME280;22989;55.998;37.212;2024-02-28T04:40:11;44250.28;;;-145.39;51.22
37078;BME280;22989;55.998;37.212;2024-02-28T04:42:36;44281.53;;;-145.39;51.32
37078;BME280;22989;55.998;37.212;2024-02-28T04:45:03;44365.53;;;-145.39;51.34
37078;BME280;22989;55.998;37.212;2024-02-28T04:47:29;44451.50;;;-145.39;51.24
37078;BME280;22989;55.998;37.212;2024-02-28T04:49:54;44566.75;;;-145.39;51.48
37078;BME280;22989;55.998;37.212;2024-02-28T04:52:20;44691.78;;;-145.39;51.29
37078;BME280;22989;55.998;37.212;2024-02-28T04:54:45;44693.75;;;-145.39;51.39
37078;BME280;22989;55.998;37.212;2024-02-28T04:57:11;44496.44;;;-145.39;51.27
37078;BME280;22989;55.998;37.212;2024-02-28T04:59:36;44402.66;;;-145.39;51.04
37078;BME280;22989;55.998;37.212;2024-02-28T05:02:02;44437.81;;;-145.39;51.02
37078;BME280;22989;55.998;37.212;2024-02-28T05:04:28;44451.50;;;-145.39;50.98
37078;BME280;22989;55.998;37.212;2024-02-28T05:06:54;44457.34;;;-145.39;51.04
37078;BME280;22989;55.998;37.212;2024-02-28T05:09:19;44469.06;;;-145.39;51.02
37078;BME280;22989;55.998;37.212;2024-02-28T05:11:45;44478.84;;;-145.39;50.85
37078;BME280;22989;55.998;37.212;2024-02-28T05:14:10;44430.00;;;-145.39;50.88
37078;BME280;22989;55.998;37.212;2024-02-28T05:16:36;44469.06;;;-145.39;50.88
37078;BME280;22989;55.998;37.212;2024-02-28T05:19:01;44502.28;;;-145.39;50.76
37078;BME280;22989;55.998;37.212;2024-02-28T05:21:29;44447.59;;;-145.39;50.78
37078;BME280;22989;55.998;37.212;2024-02-28T05:23:55;44539.41;;;-145.39;50.66
37078;BME280;22989;55.998;37.212;2024-02-28T05:26:21;44562.84;;;-145.39;50.73
37078;BME280;22989;55.998;37.212;2024-02-28T05:28:46;44471.03;;;-145.39;50.80
37078;BME280;22989;55.998;37.212;2024-02-28T05:31:25;44426.09;;;-145.39;50.58
37078;BME280;22989;55.998;37.212;2024-02-28T05:33:53;44342.09;;;-145.39;50.51
37078;BME280;22989;55.998;37.212;2024-02-28T05:36:20;44390.94;;;-145.39;50.39
37078;BME280;22989;55.998;37.212;2024-02-28T05:38:47;44476.88;;;-145.39;50.39
37078;BME280;22989;55.998;37.212;2024-02-28T05:41:12;44365.53;;;-145.39;50.36
37078;BME280;22989;55.998;37.212;2024-02-28T05:43:38;44428.06;;;-145.39;50.27
37078;BME280;22989;55.998;37.212;2024-02-28T05:46:04;44390.94;;;-145.39;50.17
37078;BME280;22989;55.998;37.212;2024-02-28T05:48:29;44375.31;;;-145.39;50.15
37078;BME280;22989;55.998;37.212;2024-02-28T05:50:55;44435.88;;;-145.39;49.91
37078;BME280;22989;55.998;37.212;2024-02-28T05:53:20;44474.94;;;-145.39;50.03
37078;BME280;22989;55.998;37.212;2024-02-28T05:55:46;44562.84;;;-145.39;50.07
37078;BME280;22989;55.998;37.212;2024-02-28T05:58:13;44484.72;;;-145.39;49.90
37078;BME280;22989;55.998;37.212;2024-02-28T06:00:38;44385.06;;;-145.39;49.74
37078;BME280;22989;55.998;37.212;2024-02-28T06:03:04;44361.63;;;-145.39;49.55
37078;BME280;22989;55.998;37.212;2024-02-28T06:05:30;44363.59;;;-145.39;49.50
37078;BME280;22989;55.998;37.212;2024-02-28T06:07:56;44344.06;;;-145.39;49.52
37078;BME280;22989;55.998;37.212;2024-02-28T06:10:21;44340.16;;;-145.39;49.50
37078;BME280;22989;55.998;37.212;2024-02-28T06:12:47;44338.19;;;-145.39;49.55
37078;BME280;22989;55.998;37.212;2024-02-28T06:15:12;44396.78;;;-145.39;49.35
37078;BME280;22989;55.998;37.212;2024-02-28T06:17:38;44408.50;;;-145.39;49.37
37078;BME280;22989;55.998;37.212;2024-02-28T06:20:05;44340.16;;;-145.39;49.30
37078;BME280;22989;55.998;37.212;2024-02-28T06:22:31;44349.91;;;-145.39;49.10
37078;BME280;22989;55.998;37.212;2024-02-28T06:24:57;44353.81;;;-145.39;49.29
37078;BME280;22989;55.998;37.212;2024-02-28T06:27:22;44355.78;;;-145.39;49.05
37078;BME280;22989;55.998;37.212;2024-02-28T06:29:48;44351.88;;;-145.39;48.89
37078;BME280;22989;55.998;37.212;2024-02-28T06:32:14;44334.28;;;-145.39;48.75
37078;BME280;22989;55.998;37.212;2024-02-28T06:34:40;44369.44;;;-145.39;48.79
37078;BME280;22989;55.998;37.212;2024-02-28T06:37:05;44457.34;;;-145.39;48.62
37078;BME280;22989;55.998;37.212;2024-02-28T06:39:31;44523.78;;;-145.39;48.60
37078;BME280;22989;55.998;37.212;2024-02-28T06:41:56;44760.16;;;-145.39;48.49
37078;BME280;22989;55.998;37.212;2024-02-28T06:44:22;44699.59;;;-145.39;48.52
37078;BME280;22989;55.998;37.212;2024-02-28T06:46:47;44498.38;;;-145.39;48.22
37078;BME280;22989;55.998;37.212;2024-02-28T06:49:13;44332.34;;;-145.39;47.03
37078;BME280;22989;55.998;37.212;2024-02-28T06:51:38;44215.13;;;-145.39;47.35
37078;BME280;22989;55.998;37.212;2024-02-28T06:54:04;44090.09;;;-145.39;46.23
37078;BME280;22989;55.998;37.212;2024-02-28T06:56:32;44010.03;;;-145.39;45.40
37078;BME280;22989;55.998;37.212;2024-02-28T06:58:58;43896.72;;;-145.39;45.02
37078;BME280;22989;55.998;37.212;2024-02-28T07:01:23;43840.09;;;-145.39;44.36
37078;BME280;22989;55.998;37.212;2024-02-28T07:03:49;43779.53;;;-145.39;43.79
37078;BME280;22989;55.998;37.212;2024-02-28T07:06:14;43769.75;;;-145.39;43.48
37078;BME280;22989;55.998;37.212;2024-02-28T07:08:40;43689.69;;;-145.39;43.35
37078;BME280;22989;55.998;37.212;2024-02-28T07:11:13;43642.81;;;-145.39;42.23
37078;BME280;22989;55.998;37.212;2024-02-28T07:13:38;43693.59;;;-145.39;40.96
37078;BME280;22989;55.998;37.212;2024-02-28T07:16:04;43693.59;;;-145.39;41.35
37078;BME280;22989;55.998;37.212;2024-02-28T07:18:30;43642.81;;;-145.39;40.50
37078;BME280;22989;55.998;37.212;2024-02-28T07:20:55;43664.28;;;-145.39;40.39
37078;BME280;22989;55.998;37.212;2024-02-28T07:23:21;43674.06;;;-145.39;39.93
37078;BME280;22989;55.998;37.212;2024-02-28T07:25:46;45080.59;;;-145.39;39.36
37078;BME280;22989;55.998;37.212;2024-02-28T07:28:12;43740.47;;;-145.39;39.11
37078;BME280;22989;55.998;37.212;2024-02-28T07:30:38;43754.13;;;-145.39;38.89
37078;BME280;22989;55.998;37.212;2024-02-28T07:33:05;43734.59;;;-145.39;38.96
37078;BME280;22989;55.998;37.212;2024-02-28T07:35:31;43838.13;;;-145.39;38.38
37078;BME280;22989;55.998;37.212;2024-02-28T07:37:56;43890.88;;;-145.39;38.32
37078;BME280;22989;55.998;37.212;2024-02-28T07:40:22;43920.16;;;-145.39;38.55
37078;BME280;22989;55.998;37.212;2024-02-28T07:42:47;43927.97;;;-145.39;38.63
37078;BME280;22989;55.998;37.212;2024-02-28T07:45:13;43935.78;;;-145.39;38.96
37078;BME280;22989;55.998;37.212;2024-02-28T07:47:39;43890.88;;;-145.39;38.96
37078;BME280;22989;55.998;37.212;2024-02-28T07:50:06;43945.56;;;-145.39;39.08
37078;BME280;22989;55.998;37.212;2024-02-28T07:52:32;43927.97;;;-145.39;39.20
37078;BME280;22989;55.998;37.212;2024-02-28T07:55:01;43970.94;;;-145.39;39.12
37078;BME280;22989;55.998;37.212;2024-02-28T07:57:27;43926.03;;;-145.39;39.26
37078;BME280;22989;55.998;37.212;2024-02-28T07:59:53;43918.22;;;-145.39;39.33
37078;BME280;22989;55.998;37.212;2024-02-28T08:02:18;43902.59;;;-145.39;39.46
37078;BME280;22989;55.998;37.212;2024-02-28T08:04:46;43949.47;;;-145.39;39.48
37078;BME280;22989;55.998;37.212;2024-02-28T08:07:11;43951.41;;;-145.39;39.66
37078;BME280;22989;55.998;37.212;2024-02-28T08:09:37;43957.28;;;-145.39;39.68
37078;BME280;22989;55.998;37.212;2024-02-28T08:12:03;43943.59;;;-145.39;39.81
37078;BME280;22989;55.998;37.212;2024-02-28T08:14:28;43927.97;;;-145.39;39.90
37078;BME280;22989;55.998;37.212;2024-02-28T08:16:54;43943.59;;;-145.39;40.14
37078;BME280;22989;55.998;37.212;2024-02-28T08:19:20;43947.50;;;-145.39;40.17
37078;BME280;22989;55.998;37.212;2024-02-28T08:21:45;43937.75;;;-145.39;40.31
37078;BME280;22989;55.998;37.212;2024-02-28T08:24:11;43924.06;;;-145.39;40.40
37078;BME280;22989;55.998;37.212;2024-02-28T08:26:36;43929.94;;;-145.39;40.40
37078;BME280;22989;55.998;37.212;2024-02-28T08:29:02;43935.78;;;-145.39;40.67
37078;BME280;22989;55.998;37.212;2024-02-28T08:31:28;43949.47;;;-145.39;40.79
37078;BME280;22989;55.998;37.212;2024-02-28T08:33:53;43892.81;;;-145.39;40.89
37078;BME280;22989;55.998;37.212;2024-02-28T08:36:21;43912.34;;;-145.39;41.01
37078;BME280;22989;55.998;37.212;2024-02-28T08:38:46;43922.13;;;-145.39;41.07
37078;BME280;22989;55.998;37.212;2024-02-28T08:41:12;43888.91;;;-145.39;41.18
37078;BME280;22989;55.998;37.212;2024-02-28T08:43:41;43869.38;;;-145.39;41.26
37078;BME280;22989;55.998;37.212;2024-02-28T08:46:07;43869.38;;;-145.39;41.02
37078;BME280;22989;55.998;37.212;2024-02-28T08:48:33;43877.19;;;-145.39;41.21
37078;BME280;22989;55.998;37.212;2024-02-28T08:50:59;43898.69;;;-145.39;41.33
37078;BME280;22989;55.998;37.212;2024-02-28T08:53:24;43886.97;;;-145.39;41.41
37078;BME280;22989;55.998;37.212;2024-02-28T08:55:50;43855.72;;;-145.39;41.44
37078;BME280;22989;55.998;37.212;2024-02-28T08:58:15;43861.56;;;-145.39;41.45
37078;BME280;22989;55.998;37.212;2024-02-28T09:00:41;43849.84;;;-145.39;41.36
37078;BME280;22989;55.998;37.212;2024-02-28T09:03:06;43863.53;;;-145.39;41.48
37078;BME280;22989;55.998;37.212;2024-02-28T09:05:32;43857.66;;;-145.39;41.29
37078;BME280;22989;55.998;37.212;2024-02-28T09:07:57;43845.94;;;-145.39;41.27
37078;BME280;22989;55.998;37.212;2024-02-28T09:10:23;43847.91;;;-145.39;41.24
37078;BME280;22989;55.998;37.212;2024-02-28T09:12:52;43779.53;;;-145.39;41.49
37078;BME280;22989;55.998;37.212;2024-02-28T09:15:19;43842.03;;;-145.39;41.23
37078;BME280;22989;55.998;37.212;2024-02-28T09:17:45;43828.38;;;-145.39;41.22
37078;BME280;22989;55.998;37.212;2024-02-28T09:20:11;43826.41;;;-145.39;41.14
37078;BME280;22989;55.998;37.212;2024-02-28T09:22:38;43814.69;;;-145.39;41.15
37078;BME280;22989;55.998;37.212;2024-02-28T09:25:04;43828.38;;;-145.39;40.99
37078;BME280;22989;55.998;37.212;2024-02-28T09:27:32;43812.75;;;-145.39;40.96
37078;BME280;22989;55.998;37.212;2024-02-28T09:29:58;43847.91;;;-145.39;41.13
37078;BME280;22989;55.998;37.212;2024-02-28T09:32:23;43777.56;;;-145.39;41.01
37078;BME280;22989;55.998;37.212;2024-02-28T09:34:49;43760.00;;;-145.39;40.99
37078;BME280;22989;55.998;37.212;2024-02-28T09:37:15;43767.81;;;-145.39;40.96
37078;BME280;22989;55.998;37.212;2024-02-28T09:39:42;43746.31;;;-145.39;40.90
37078;BME280;22989;55.998;37.212;2024-02-28T09:42:07;43742.41;;;-145.39;40.76
37078;BME280;22989;55.998;37.212;2024-02-28T09:44:36;43767.81;;;-145.39;40.65
37078;BME280;22989;55.998;37.212;2024-02-28T09:47:03;43718.97;;;-145.39;40.66
37078;BME280;22989;55.998;37.212;2024-02-28T09:49:31;43713.13;;;-145.39;40.53
37078;BME280;22989;55.998;37.212;2024-02-28T09:51:57;43691.63;;;-145.39;40.43
37078;BME280;22989;55.998;37.212;2024-02-28T09:54:22;43689.69;;;-145.39;40.37
37078;BME280;22989;55.998;37.212;2024-02-28T09:56:48;43707.25;;;-145.39;40.41
37078;BME280;22989;55.998;37.212;2024-02-28T09:59:15;43685.78;;;-145.39;40.47
37078;BME280;22989;55.998;37.212;2024-02-28T10:01:43;43687.72;;;-145.39;40.22
37078;BME280;22989;55.998;37.212;2024-02-28T10:04:10;43668.19;;;-145.39;40.10
37078;BME280;22989;55.998;37.212;2024-02-28T10:06:40;43636.94;;;-145.39;40.11
37078;BME280;22989;55.998;37.212;2024-02-28T10:09:06;43578.34;;;-145.39;39.88
37078;BME280;22989;55.998;37.212;2024-02-28T10:11:33;43631.09;;;-145.39;39.93
37078;BME280;22989;55.998;37.212;2024-02-28T10:14:01;43635.00;;;-145.39;39.93
37078;BME280;22989;55.998;37.212;2024-02-28T10:16:27;43623.28;;;-145.39;40.05
37078;BME280;22989;55.998;37.212;2024-02-28T10:18:52;43627.19;;;-145.39;39.90
37078;BME280;22989;55.998;37.212;2024-02-28T10:21:19;43592.03;;;-145.39;39.92
37078;BME280;22989;55.998;37.212;2024-02-28T10:23:44;43603.75;;;-145.39;39.90
37078;BME280;22989;55.998;37.212;2024-02-28T10:26:11;43588.13;;;-145.39;39.75
37078;BME280;22989;55.998;37.212;2024-02-28T10:28:38;43592.03;;;-145.39;39.64
37078;BME280;22989;55.998;37.212;2024-02-28T10:31:08;43576.41;;;-145.39;39.66
37078;BME280;22989;55.998;37.212;2024-02-28T10:33:34;43582.25;;;-145.39;39.46
37078;BME280;22989;55.998;37.212;2024-02-28T10:36:03;43592.03;;;-145.39;39.46
37078;BME280;22989;55.998;37.212;2024-02-28T10:38:31;43586.16;;;-145.39;39.51
37078;BME280;22989;55.998;37.212;2024-02-28T10:40:59;43580.31;;;-145.39;39.46
37078;BME280;22989;55.998;37.212;2024-02-28T10:43:28;43552.97;;;-145.39;39.51
37078;BME280;22989;55.998;37.212;2024-02-28T10:45:57;43551.00;;;-145.39;39.46
37078;BME280;22989;55.998;37.212;2024-02-28T10:48:24;43543.19;;;-145.39;39.36
37078;BME280;22989;55.998;37.212;2024-02-28T10:50:50;43541.25;;;-145.39;39.53
37078;BME280;22989;55.998;37.212;2024-02-28T10:53:21;43517.81;;;-145.39;39.51
37078;BME280;22989;55.998;37.212;2024-02-28T10:55:48;43529.53;;;-145.39;39.56
37078;BME280;22989;55.998;37.212;2024-02-28T10:58:14;43525.63;;;-145.39;39.50
37078;BME280;22989;55.998;37.212;2024-02-28T11:00:43;43500.22;;;-145.39;39.33
37078;BME280;22989;55.998;37.212;2024-02-28T11:03:15;43549.06;;;-145.39;39.48
37078;BME280;22989;55.998;37.212;2024-02-28T11:05:43;43523.66;;;-145.39;39.16
37078;BME280;22989;55.998;37.212;2024-02-28T11:08:24;43539.28;;;-145.39;39.36
37078;BME280;22989;55.998;37.212;2024-02-28T11:10:57;43519.75;;;-145.39;39.18
37078;BME280;22989;55.998;37.212;2024-02-28T11:13:26;43529.53;;;-145.39;39.13
37078;BME280;22989;55.998;37.212;2024-02-28T11:15:53;43488.50;;;-145.39;39.17
37078;BME280;22989;55.998;37.212;2024-02-28T11:18:21;43494.38;;;-145.39;39.16
37078;BME280;22989;55.998;37.212;2024-02-28T11:20:47;43472.88;;;-145.39;39.14
37078;BME280;22989;55.998;37.212;2024-02-28T11:23:14;43508.03;;;-145.39;39.03
37078;BME280;22989;55.998;37.212;2024-02-28T11:25:40;43480.69;;;-145.39;39.06
37078;BME280;22989;55.998;37.212;2024-02-28T11:28:07;43461.16;;;-145.39;39.11
37078;BME280;22989;55.998;37.212;2024-02-28T11:30:33;43459.22;;;-145.39;39.13
37078;BME280;22989;55.998;37.212;2024-02-28T11:32:58;43482.66;;;-145.39;39.10
37078;BME280;22989;55.998;37.212;2024-02-28T11:35:26;43435.78;;;-145.39;39.00
37078;BME280;22989;55.998;37.212;2024-02-28T11:37:54;43367.44;;;-145.39;38.98
37078;BME280;22989;55.998;37.212;2024-02-28T11:40:48;43404.53;;;-145.39;38.97
37078;BME280;22989;55.998;37.212;2024-02-28T11:43:14;43461.16;;;-145.39;38.94
37078;BME280;22989;55.998;37.212;2024-02-28T11:45:39;43465.06;;;-145.39;38.81
37078;BME280;22989;55.998;37.212;2024-02-28T11:48:07;43449.44;;;-145.39;38.64
37078;BME280;22989;55.998;37.212;2024-02-28T11:50:32;43435.78;;;-145.39;38.71
37078;BME280;22989;55.998;37.212;2024-02-28T11:52:58;43426.00;;;-145.39;38.63
37078;BME280;22989;55.998;37.212;2024-02-28T11:55:25;43412.34;;;-145.39;38.48
37078;BME280;22989;55.998;37.212;2024-02-28T11:57:51;43457.25;;;-145.39;38.45
37078;BME280;22989;55.998;37.212;2024-02-28T12:00:16;43445.53;;;-145.39;38.42
37078;BME280;22989;55.998;37.212;2024-02-28T12:02:42;43404.53;;;-145.39;38.32
37078;BME280;22989;55.998;37.212;2024-02-28T12:05:07;43402.56;;;-145.39;38.30
37078;BME280;22989;55.998;37.212;2024-02-28T12:07:34;43426.00;;;-145.39;38.39
37078;BME280;22989;55.998;37.212;2024-02-28T12:10:00;43402.56;;;-145.39;38.50
37078;BME280;22989;55.998;37.212;2024-02-28T12:12:29;43414.28;;;-145.39;38.52
37078;BME280;22989;55.998;37.212;2024-02-28T12:15:01;43383.06;;;-145.39;38.50
37078;BME280;22989;55.998;37.212;2024-02-28T12:17:29;43385.00;;;-145.39;38.59
37078;BME280;22989;55.998;37.212;2024-02-28T12:19:54;43408.44;;;-145.39;38.52
37078;BME280;22989;55.998;37.212;2024-02-28T12:22:21;43390.88;;;-145.39;38.43
37078;BME280;22989;55.998;37.212;2024-02-28T12:24:46;43381.09;;;-145.39;38.11